sensor_id;sensor_type;location;lat;lon;timestamp;pressure;altitude;pressure_sealevel;temperature;humidity
50123;BME280;36021;48.670;6.184;2023-01-26T00:00:42;99703.06;;;2.09;100.00
50123;BME280;36021;48.670;6.184;2023-01-26T00:03:07;99703.50;;;2.06;100.00
50123;BME280;36021;48.670;6.184;2023-01-26T00:05:35;99692.44;;;2.08;100.00
50123;BME280;36021;48.670;6.184;2023-01-26T00:08:01;99694.63;;;2.18;100.00
50123;BME280;36021;48.670;6.184;2023-01-26T00:10:26;99708.22;;;2.18;100.00
50123;BME280;36021;48.670;6.184;2023-01-26T00:12:52;99697.94;;;2.20;100.00
50123;BME280;36021;48.670;6.184;2023-01-26T00:15:17;99698.56;;;2.22;100.00
50123;BME280;36021;48.670;6.184;2023-01-26T00:17:43;99700.97;;;2.30;100.00
50123;BME280;36021;48.670;6.184;2023-01-26T00:20:09;99691.00;;;2.24;100.00
50123;BME280;36021;48.670;6.184;2023-01-26T00:22:36;99688.47;;;2.29;100.00
50123;BME280;36021;48.670;6.184;2023-01-26T00:25:03;99693.13;;;2.22;100.00
50123;BME280;36021;48.670;6.184;2023-01-26T00:27:31;99686.94;;;2.33;100.00
50123;BME280;36021;48.670;6.184;2023-01-26T00:29:59;99688.91;;;2.44;100.00
50123;BME280;36021;48.670;6.184;2023-01-26T00:32:24;99675.03;;;2.52;100.00
50123;BME280;36021;48.670;6.184;2023-01-26T00:34:50;99675.78;;;2.41;100.00
50123;BME280;36021;48.670;6.184;2023-01-26T00:37:15;99680.00;;;2.55;100.00
50123;BME280;36021;48.670;6.184;2023-01-26T00:39:42;99679.84;;;2.50;100.00
50123;BME280;36021;48.670;6.184;2023-01-26T00:42:07;99688.00;;;2.50;100.00
50123;BME280;36021;48.670;6.184;2023-01-26T00:44:39;99683.78;;;2.54;100.00
50123;BME280;36021;48.670;6.184;2023-01-26T00:47:05;99681.97;;;2.66;100.00
50123;BME280;36021;48.670;6.184;2023-01-26T00:49:32;99683.22;;;2.82;100.00
50123;BME280;36021;48.670;6.184;2023-01-26T00:51:58;99687.78;;;2.88;100.00
50123;BME280;36021;48.670;6.184;2023-01-26T00:54:23;99670.16;;;2.90;100.00
50123;BME280;36021;48.670;6.184;2023-01-26T00:56:49;99675.16;;;2.75;100.00
50123;BME280;36021;48.670;6.184;2023-01-26T00:59:14;99669.50;;;2.77;100.00
50123;BME280;36021;48.670;6.184;2023-01-26T01:01:44;99675.44;;;2.85;100.00
50123;BME280;36021;48.670;6.184;2023-01-26T01:04:12;99687.09;;;2.56;100.00
50123;BME280;36021;48.670;6.184;2023-01-26T01:06:38;99670.78;;;2.56;100.00
50123;BME280;36021;48.670;6.184;2023-01-26T01:09:03;99680.44;;;2.70;100.00
50123;BME280;36021;48.670;6.184;2023-01-26T01:11:29;99668.28;;;2.73;100.00
50123;BME280;36021;48.670;6.184;2023-01-26T01:13:55;99676.91;;;2.70;100.00
50123;BME280;36021;48.670;6.184;2023-01-26T01:16:21;99664.97;;;2.71;100.00
50123;BME280;36021;48.670;6.184;2023-01-26T01:18:46;99667.38;;;2.60;100.00
50123;BME280;36021;48.670;6.184;2023-01-26T01:21:14;99669.28;;;2.60;100.00
50123;BME280;36021;48.670;6.184;2023-01-26T01:23:39;99665.97;;;2.58;100.00
50123;BME280;36021;48.670;6.184;2023-01-26T01:26:05;99656.03;;;2.63;100.00
50123;BME280;36021;48.670;6.184;2023-01-26T01:28:33;99658.63;;;2.58;100.00
50123;BME280;36021;48.670;6.184;2023-01-26T01:31:02;99655.53;;;2.55;100.00
50123;BME280;36021;48.670;6.184;2023-01-26T01:33:28;99658.84;;;2.57;100.00
50123;BME280;36021;48.670;6.184;2023-01-26T01:35:57;99666.09;;;2.63;100.00
50123;BME280;36021;48.670;6.184;2023-01-26T01:38:24;99660.72;;;2.56;100.00
50123;BME280;36021;48.670;6.184;2023-01-26T01:40:49;99665.19;;;2.69;100.00
50123;BME280;36021;48.670;6.184;2023-01-26T01:43:15;99661.16;;;2.72;100.00
50123;BME280;36021;48.670;6.184;2023-01-26T01:45:42;99658.22;;;2.73;100.00
50123;BME280;36021;48.670;6.184;2023-01-26T01:48:10;99649.31;;;2.66;100.00
50123;BME280;36021;48.670;6.184;2023-01-26T01:50:38;99655.00;;;2.65;100.00
50123;BME280;36021;48.670;6.184;2023-01-26T01:53:04;99657.03;;;2.51;100.00
50123;BME280;36021;48.670;6.184;2023-01-26T01:55:32;99658.97;;;2.62;100.00
50123;BME280;36021;48.670;6.184;2023-01-26T01:57:58;99667.28;;;2.49;100.00
50123;BME280;36021;48.670;6.184;2023-01-26T02:00:25;99657.56;;;2.59;100.00
50123;BME280;36021;48.670;6.184;2023-01-26T02:02:56;99663.81;;;2.60;100.00
50123;BME280;36021;48.670;6.184;2023-01-26T02:08:21;99662.03;;;2.54;100.00
50123;BME280;36021;48.670;6.184;2023-01-26T02:10:48;99657.50;;;2.48;100.00
50123;BME280;36021;48.670;6.184;2023-01-26T02:13:15;99654.75;;;2.12;100.00
50123;BME280;36021;48.670;6.184;2023-01-26T02:15:42;99652.03;;;2.30;100.00
50123;BME280;36021;48.670;6.184;2023-01-26T02:18:07;99652.03;;;2.12;100.00
50123;BME280;36021;48.670;6.184;2023-01-26T02:20:41;99644.34;;;2.27;100.00
50123;BME280;36021;48.670;6.184;2023-01-26T02:28:23;99638.38;;;2.36;100.00
50123;BME280;36021;48.670;6.184;2023-01-26T02:30:49;99641.47;;;2.22;100.00
50123;BME280;36021;48.670;6.184;2023-01-26T02:33:23;99640.72;;;2.15;100.00
50123;BME280;36021;48.670;6.184;2023-01-26T02:35:50;99634.38;;;2.21;100.00
50123;BME280;36021;48.670;6.184;2023-01-26T02:38:16;99625.06;;;2.10;100.00
50123;BME280;36021;48.670;6.184;2023-01-26T02:43:14;99624.84;;;2.12;100.00
50123;BME280;36021;48.670;6.184;2023-01-26T02:45:39;99622.72;;;2.14;100.00
50123;BME280;36021;48.670;6.184;2023-01-26T02:48:06;99623.88;;;2.06;100.00
50123;BME280;36021;48.670;6.184;2023-01-26T02:50:32;99626.66;;;1.99;100.00
50123;BME280;36021;48.670;6.184;2023-01-26T02:52:58;99625.75;;;2.05;100.00
50123;BME280;36021;48.670;6.184;2023-01-26T02:55:26;99624.16;;;1.98;100.00
50123;BME280;36021;48.670;6.184;2023-01-26T02:57:55;99612.75;;;2.07;100.00
50123;BME280;36021;48.670;6.184;2023-01-26T03:00:26;99612.31;;;2.10;100.00
50123;BME280;36021;48.670;6.184;2023-01-26T03:02:53;99607.78;;;2.04;100.00
50123;BME280;36021;48.670;6.184;2023-01-26T03:05:19;99604.22;;;2.04;100.00
50123;BME280;36021;48.670;6.184;2023-01-26T03:07:45;99609.13;;;1.95;100.00
50123;BME280;36021;48.670;6.184;2023-01-26T03:10:10;99608.22;;;2.01;100.00
50123;BME280;36021;48.670;6.184;2023-01-26T03:12:36;99595.69;;;1.82;100.00
50123;BME280;36021;48.670;6.184;2023-01-26T03:15:02;99594.53;;;1.72;100.00
50123;BME280;36021;48.670;6.184;2023-01-26T03:17:47;99603.38;;;1.85;100.00
50123;BME280;36021;48.670;6.184;2023-01-26T03:20:12;99592.97;;;1.82;100.00
50123;BME280;36021;48.670;6.184;2023-01-26T03:22:57;99595.38;;;1.90;100.00
50123;BME280;36021;48.670;6.184;2023-01-26T03:25:41;99587.84;;;1.92;100.00
50123;BME280;36021;48.670;6.184;2023-01-26T03:28:28;99586.16;;;1.91;100.00
50123;BME280;36021;48.670;6.184;2023-01-26T03:30:54;99589.72;;;1.92;100.00
50123;BME280;36021;48.670;6.184;2023-01-26T03:33:21;99592.81;;;1.95;100.00
50123;BME280;36021;48.670;6.184;2023-01-26T03:35:47;99576.66;;;2.00;100.00
50123;BME280;36021;48.670;6.184;2023-01-26T03:38:13;99579.00;;;1.97;100.00
50123;BME280;36021;48.670;6.184;2023-01-26T03:40:45;99581.78;;;1.72;100.00
50123;BME280;36021;48.670;6.184;2023-01-26T03:43:30;99587.28;;;1.66;100.00
50123;BME280;36021;48.670;6.184;2023-01-26T03:46:15;99597.19;;;1.78;100.00
50123;BME280;36021;48.670;6.184;2023-01-26T03:48:59;99585.84;;;1.81;100.00
50123;BME280;36021;48.670;6.184;2023-01-26T03:51:44;99581.34;;;1.93;100.00
50123;BME280;36021;48.670;6.184;2023-01-26T03:54:29;99572.31;;;1.99;100.00
50123;BME280;36021;48.670;6.184;2023-01-26T03:57:16;99572.72;;;1.96;100.00
50123;BME280;36021;48.670;6.184;2023-01-26T03:59:41;99578.22;;;1.90;100.00
50123;BME280;36021;48.670;6.184;2023-01-26T04:02:14;99569.56;;;1.81;100.00
50123;BME280;36021;48.670;6.184;2023-01-26T04:05:00;99570.84;;;1.79;100.00
50123;BME280;36021;48.670;6.184;2023-01-26T04:07:48;99580.22;;;2.01;100.00
50123;BME280;36021;48.670;6.184;2023-01-26T04:10:32;99572.72;;;1.96;100.00
50123;BME280;36021;48.670;6.184;2023-01-26T04:13:01;99572.38;;;2.11;100.00
50123;BME280;36021;48.670;6.184;2023-01-26T04:15:50;99570.94;;;2.08;100.00
50123;BME280;36021;48.670;6.184;2023-01-26T04:18:35;99580.59;;;2.04;100.00
50123;BME280;36021;48.670;6.184;2023-01-26T04:21:20;99563.38;;;2.10;100.00
50123;BME280;36021;48.670;6.184;2023-01-26T04:24:00;99570.63;;;2.17;100.00
50123;BME280;36021;48.670;6.184;2023-01-26T04:26:30;99556.56;;;2.20;100.00
50123;BME280;36021;48.670;6.184;2023-01-26T04:29:11;99560.81;;;2.16;100.00
50123;BME280;36021;48.670;6.184;2023-01-26T04:31:38;99553.84;;;2.38;100.00
50123;BME280;36021;48.670;6.184;2023-01-26T04:34:04;99552.34;;;2.24;100.00
50123;BME280;36021;48.670;6.184;2023-01-26T04:36:30;99549.09;;;2.33;100.00
50123;BME280;36021;48.670;6.184;2023-01-26T04:38:55;99555.22;;;2.10;100.00
50123;BME280;36021;48.670;6.184;2023-01-26T04:41:21;99554.47;;;2.22;100.00
50123;BME280;36021;48.670;6.184;2023-01-26T04:43:53;99547.06;;;2.29;100.00
50123;BME280;36021;48.670;6.184;2023-01-26T04:46:20;99547.38;;;2.21;100.00
50123;BME280;36021;48.670;6.184;2023-01-26T04:48:46;99538.81;;;2.35;100.00
50123;BME280;36021;48.670;6.184;2023-01-26T04:51:12;99534.66;;;2.33;100.00
50123;BME280;36021;48.670;6.184;2023-01-26T04:53:39;99528.75;;;2.36;100.00
50123;BME280;36021;48.670;6.184;2023-01-26T04:56:08;99528.84;;;2.29;100.00
50123;BME280;36021;48.670;6.184;2023-01-26T04:58:38;99530.72;;;2.47;100.00
50123;BME280;36021;48.670;6.184;2023-01-26T05:01:04;99532.19;;;2.31;100.00
50123;BME280;36021;48.670;6.184;2023-01-26T05:03:31;99530.84;;;2.22;100.00
50123;BME280;36021;48.670;6.184;2023-01-26T05:05:56;99526.50;;;2.33;100.00
50123;BME280;36021;48.670;6.184;2023-01-26T05:08:23;99521.31;;;2.31;100.00
50123;BME280;36021;48.670;6.184;2023-01-26T05:10:49;99524.38;;;2.35;100.00
50123;BME280;36021;48.670;6.184;2023-01-26T05:13:43;99519.53;;;2.37;100.00
50123;BME280;36021;48.670;6.184;2023-01-26T05:16:16;99524.44;;;2.46;100.00
50123;BME280;36021;48.670;6.184;2023-01-26T05:18:54;99521.81;;;2.40;100.00
50123;BME280;36021;48.670;6.184;2023-01-26T05:21:31;99520.47;;;2.31;100.00
50123;BME280;36021;48.670;6.184;2023-01-26T05:23:57;99514.53;;;2.22;100.00
50123;BME280;36021;48.670;6.184;2023-01-26T05:26:31;99510.34;;;2.38;100.00
50123;BME280;36021;48.670;6.184;2023-01-26T05:29:01;99512.19;;;2.26;100.00
50123;BME280;36021;48.670;6.184;2023-01-26T05:31:27;99515.78;;;2.20;100.00
50123;BME280;36021;48.670;6.184;2023-01-26T05:33:53;99504.31;;;2.18;100.00
50123;BME280;36021;48.670;6.184;2023-01-26T05:36:21;99514.78;;;2.02;100.00
50123;BME280;36021;48.670;6.184;2023-01-26T05:38:47;99521.09;;;2.15;100.00
50123;BME280;36021;48.670;6.184;2023-01-26T05:41:14;99518.38;;;2.15;100.00
50123;BME280;36021;48.670;6.184;2023-01-26T05:43:55;99512.19;;;2.07;100.00
50123;BME280;36021;48.670;6.184;2023-01-26T05:46:50;99512.94;;;1.96;100.00
50123;BME280;36021;48.670;6.184;2023-01-26T05:49:15;99517.03;;;2.05;100.00
50123;BME280;36021;48.670;6.184;2023-01-26T05:51:41;99522.84;;;1.91;100.00
50123;BME280;36021;48.670;6.184;2023-01-26T05:54:07;99522.63;;;1.92;100.00
50123;BME280;36021;48.670;6.184;2023-01-26T05:56:33;99513.41;;;2.12;100.00
50123;BME280;36021;48.670;6.184;2023-01-26T05:59:01;99517.88;;;2.06;100.00
50123;BME280;36021;48.670;6.184;2023-01-26T06:01:28;99514.91;;;2.07;100.00
50123;BME280;36021;48.670;6.184;2023-01-26T06:03:58;99508.88;;;2.05;100.00
50123;BME280;36021;48.670;6.184;2023-01-26T06:06:26;99525.31;;;2.10;100.00
50123;BME280;36021;48.670;6.184;2023-01-26T06:09:00;99512.34;;;2.13;100.00
50123;BME280;36021;48.670;6.184;2023-01-26T06:11:46;99520.69;;;2.29;100.00
50123;BME280;36021;48.670;6.184;2023-01-26T06:14:21;99520.34;;;2.07;100.00
50123;BME280;36021;48.670;6.184;2023-01-26T06:16:47;99517.31;;;2.16;100.00
50123;BME280;36021;48.670;6.184;2023-01-26T06:19:13;99512.59;;;1.93;100.00
50123;BME280;36021;48.670;6.184;2023-01-26T06:21:40;99519.75;;;1.87;100.00
50123;BME280;36021;48.670;6.184;2023-01-26T06:24:06;99517.47;;;1.84;100.00
50123;BME280;36021;48.670;6.184;2023-01-26T06:26:34;99525.03;;;1.82;100.00
50123;BME280;36021;48.670;6.184;2023-01-26T06:28:59;99527.31;;;1.85;100.00
50123;BME280;36021;48.670;6.184;2023-01-26T06:31:28;99527.50;;;1.84;100.00
50123;BME280;36021;48.670;6.184;2023-01-26T06:33:56;99526.47;;;1.85;100.00
50123;BME280;36021;48.670;6.184;2023-01-26T06:36:22;99533.25;;;1.94;100.00
50123;BME280;36021;48.670;6.184;2023-01-26T06:38:48;99539.16;;;2.09;100.00
50123;BME280;36021;48.670;6.184;2023-01-26T06:41:15;99526.66;;;2.20;100.00
50123;BME280;36021;48.670;6.184;2023-01-26T06:43:45;99525.25;;;2.17;100.00
50123;BME280;36021;48.670;6.184;2023-01-26T06:46:12;99527.75;;;2.19;100.00
50123;BME280;36021;48.670;6.184;2023-01-26T06:48:37;99534.53;;;2.28;100.00
50123;BME280;36021;48.670;6.184;2023-01-26T06:53:42;99532.72;;;2.22;100.00
50123;BME280;36021;48.670;6.184;2023-01-26T06:56:42;99539.97;;;2.09;100.00
50123;BME280;36021;48.670;6.184;2023-01-26T06:59:40;99536.22;;;1.92;100.00
50123;BME280;36021;48.670;6.184;2023-01-26T07:02:22;99534.47;;;1.98;100.00
50123;BME280;36021;48.670;6.184;2023-01-26T07:04:48;99528.06;;;1.92;100.00
50123;BME280;36021;48.670;6.184;2023-01-26T07:07:14;99535.13;;;1.93;100.00
50123;BME280;36021;48.670;6.184;2023-01-26T07:09:39;99538.94;;;1.92;100.00
50123;BME280;36021;48.670;6.184;2023-01-26T07:12:05;99544.50;;;1.79;100.00
50123;BME280;36021;48.670;6.184;2023-01-26T07:14:31;99539.22;;;1.66;100.00
50123;BME280;36021;48.670;6.184;2023-01-26T07:16:56;99544.84;;;1.46;100.00
50123;BME280;36021;48.670;6.184;2023-01-26T07:19:22;99551.03;;;1.53;100.00
50123;BME280;36021;48.670;6.184;2023-01-26T07:21:47;99542.66;;;1.55;100.00
50123;BME280;36021;48.670;6.184;2023-01-26T07:24:16;99539.34;;;1.53;100.00
50123;BME280;36021;48.670;6.184;2023-01-26T07:26:43;99544.09;;;1.57;100.00
50123;BME280;36021;48.670;6.184;2023-01-26T07:29:08;99556.16;;;1.43;100.00
50123;BME280;36021;48.670;6.184;2023-01-26T07:31:34;99544.97;;;1.51;100.00
50123;BME280;36021;48.670;6.184;2023-01-26T07:33:59;99548.38;;;1.47;100.00
50123;BME280;36021;48.670;6.184;2023-01-26T07:36:25;99547.50;;;1.53;100.00
50123;BME280;36021;48.670;6.184;2023-01-26T07:38:50;99541.38;;;1.57;100.00
50123;BME280;36021;48.670;6.184;2023-01-26T07:41:16;99543.22;;;1.64;100.00
50123;BME280;36021;48.670;6.184;2023-01-26T07:43:42;99536.63;;;1.53;100.00
50123;BME280;36021;48.670;6.184;2023-01-26T07:46:07;99538.69;;;1.33;100.00
50123;BME280;36021;48.670;6.184;2023-01-26T07:48:34;99550.03;;;1.48;100.00
50123;BME280;36021;48.670;6.184;2023-01-26T07:51:01;99542.44;;;1.56;100.00
50123;BME280;36021;48.670;6.184;2023-01-26T07:53:28;99542.44;;;1.32;100.00
50123;BME280;36021;48.670;6.184;2023-01-26T07:58:31;99553.09;;;1.09;100.00
50123;BME280;36021;48.670;6.184;2023-01-26T08:01:30;99558.91;;;1.12;100.00
50123;BME280;36021;48.670;6.184;2023-01-26T08:03:49;99559.34;;;1.09;100.00
50123;BME280;36021;48.670;6.184;2023-01-26T08:06:15;99557.31;;;1.04;100.00
50123;BME280;36021;48.670;6.184;2023-01-26T08:08:41;99565.22;;;1.06;100.00
50123;BME280;36021;48.670;6.184;2023-01-26T08:11:08;99566.66;;;1.09;100.00
50123;BME280;36021;48.670;6.184;2023-01-26T08:13:33;99564.38;;;1.05;100.00
50123;BME280;36021;48.670;6.184;2023-01-26T08:16:00;99570.66;;;1.06;100.00
50123;BME280;36021;48.670;6.184;2023-01-26T08:18:26;99580.28;;;1.02;100.00
50123;BME280;36021;48.670;6.184;2023-01-26T08:20:52;99581.94;;;1.03;100.00
50123;BME280;36021;48.670;6.184;2023-01-26T08:23:18;99586.88;;;1.13;100.00
50123;BME280;36021;48.670;6.184;2023-01-26T08:25:45;99593.63;;;1.03;100.00
50123;BME280;36021;48.670;6.184;2023-01-26T08:28:12;99596.16;;;0.98;100.00
50123;BME280;36021;48.670;6.184;2023-01-26T08:30:37;99600.78;;;0.98;100.00
50123;BME280;36021;48.670;6.184;2023-01-26T08:33:04;99591.53;;;1.05;100.00
50123;BME280;36021;48.670;6.184;2023-01-26T08:35:30;99597.81;;;0.99;100.00
50123;BME280;36021;48.670;6.184;2023-01-26T08:37:55;99600.53;;;0.99;100.00
50123;BME280;36021;48.670;6.184;2023-01-26T08:40:21;99598.72;;;0.93;100.00
50123;BME280;36021;48.670;6.184;2023-01-26T08:42:48;99601.94;;;1.09;100.00
50123;BME280;36021;48.670;6.184;2023-01-26T08:45:15;99596.06;;;1.12;100.00
50123;BME280;36021;48.670;6.184;2023-01-26T08:47:41;99597.66;;;0.94;100.00
50123;BME280;36021;48.670;6.184;2023-01-26T08:50:07;99593.69;;;1.22;100.00
50123;BME280;36021;48.670;6.184;2023-01-26T08:52:33;99593.94;;;1.20;100.00
50123;BME280;36021;48.670;6.184;2023-01-26T08:55:00;99595.63;;;1.15;100.00
50123;BME280;36021;48.670;6.184;2023-01-26T08:57:26;99594.94;;;1.26;100.00
50123;BME280;36021;48.670;6.184;2023-01-26T08:59:53;99600.25;;;1.14;100.00
50123;BME280;36021;48.670;6.184;2023-01-26T09:02:18;99600.63;;;1.18;100.00
50123;BME280;36021;48.670;6.184;2023-01-26T09:04:44;99597.63;;;1.26;100.00
50123;BME280;36021;48.670;6.184;2023-01-26T09:07:09;99598.19;;;1.10;100.00
50123;BME280;36021;48.670;6.184;2023-01-26T09:09:35;99605.09;;;1.05;100.00
50123;BME280;36021;48.670;6.184;2023-01-26T09:12:00;99598.06;;;0.98;100.00
50123;BME280;36021;48.670;6.184;2023-01-26T09:14:27;99599.50;;;1.00;100.00
50123;BME280;36021;48.670;6.184;2023-01-26T09:16:53;99593.28;;;0.93;100.00
50123;BME280;36021;48.670;6.184;2023-01-26T09:19:18;99593.31;;;0.87;100.00
50123;BME280;36021;48.670;6.184;2023-01-26T09:21:44;99589.53;;;0.94;100.00
50123;BME280;36021;48.670;6.184;2023-01-26T09:24:10;99599.53;;;0.94;100.00
50123;BME280;36021;48.670;6.184;2023-01-26T09:26:36;99599.50;;;1.00;100.00
50123;BME280;36021;48.670;6.184;2023-01-26T09:29:02;99586.94;;;1.06;100.00
50123;BME280;36021;48.670;6.184;2023-01-26T09:31:28;99590.53;;;1.00;100.00
50123;BME280;36021;48.670;6.184;2023-01-26T09:33:53;99596.94;;;1.05;100.00
50123;BME280;36021;48.670;6.184;2023-01-26T09:36:19;99604.94;;;1.00;100.00
50123;BME280;36021;48.670;6.184;2023-01-26T09:38:44;99595.66;;;1.08;100.00
50123;BME280;36021;48.670;6.184;2023-01-26T09:43:46;99607.38;;;1.09;100.00
50123;BME280;36021;48.670;6.184;2023-01-26T09:48:43;99603.16;;;1.13;100.00
50123;BME280;36021;48.670;6.184;2023-01-26T09:53:47;99595.66;;;1.39;100.00
50123;BME280;36021;48.670;6.184;2023-01-26T09:56:18;99588.78;;;1.37;100.00
50123;BME280;36021;48.670;6.184;2023-01-26T09:58:54;99590.72;;;1.30;100.00
50123;BME280;36021;48.670;6.184;2023-01-26T10:01:27;99588.41;;;1.33;100.00
50123;BME280;36021;48.670;6.184;2023-01-26T10:04:01;99586.41;;;1.47;100.00
50123;BME280;36021;48.670;6.184;2023-01-26T10:06:28;99589.63;;;1.37;100.00
50123;BME280;36021;48.670;6.184;2023-01-26T10:09:24;99593.72;;;1.46;100.00
50123;BME280;36021;48.670;6.184;2023-01-26T10:11:55;99594.09;;;1.50;100.00
50123;BME280;36021;48.670;6.184;2023-01-26T10:14:35;99597.88;;;1.49;100.00
50123;BME280;36021;48.670;6.184;2023-01-26T10:17:04;99608.63;;;1.37;100.00
50123;BME280;36021;48.670;6.184;2023-01-26T10:19:32;99604.06;;;1.31;100.00
50123;BME280;36021;48.670;6.184;2023-01-26T10:22:01;99598.88;;;1.30;100.00
50123;BME280;36021;48.670;6.184;2023-01-26T10:24:31;99600.44;;;1.44;100.00
50123;BME280;36021;48.670;6.184;2023-01-26T10:26:58;99594.09;;;1.50;100.00
50123;BME280;36021;48.670;6.184;2023-01-26T10:29:24;99594.94;;;1.50;100.00
50123;BME280;36021;48.670;6.184;2023-01-26T10:31:49;99588.00;;;1.54;100.00
50123;BME280;36021;48.670;6.184;2023-01-26T10:34:22;99595.00;;;1.44;100.00
50123;BME280;36021;48.670;6.184;2023-01-26T10:36:48;99589.94;;;1.23;100.00
50123;BME280;36021;48.670;6.184;2023-01-26T10:39:14;99590.53;;;1.25;100.00
50123;BME280;36021;48.670;6.184;2023-01-26T10:41:42;99584.19;;;1.37;100.00
50123;BME280;36021;48.670;6.184;2023-01-26T10:44:30;99581.91;;;1.34;100.00
50123;BME280;36021;48.670;6.184;2023-01-26T10:47:12;99578.38;;;1.34;100.00
50123;BME280;36021;48.670;6.184;2023-01-26T10:49:39;99571.44;;;1.38;100.00
50123;BME280;36021;48.670;6.184;2023-01-26T10:54:40;99574.91;;;1.45;100.00
50123;BME280;36021;48.670;6.184;2023-01-26T10:57:24;99562.94;;;1.52;100.00
50123;BME280;36021;48.670;6.184;2023-01-26T10:59:59;99564.94;;;1.39;100.00
50123;BME280;36021;48.670;6.184;2023-01-26T11:02:33;99565.13;;;1.44;100.00
50123;BME280;36021;48.670;6.184;2023-01-26T11:07:31;99561.56;;;1.19;100.00
50123;BME280;36021;48.670;6.184;2023-01-26T11:09:57;99568.72;;;1.38;100.00
50123;BME280;36021;48.670;6.184;2023-01-26T11:12:40;99557.50;;;1.28;100.00
50123;BME280;36021;48.670;6.184;2023-01-26T11:15:26;99557.69;;;1.08;100.00
50123;BME280;36021;48.670;6.184;2023-01-26T11:25:25;99546.94;;;1.44;100.00
50123;BME280;36021;48.670;6.184;2023-01-26T11:33:43;99536.31;;;1.61;100.00
50123;BME280;36021;48.670;6.184;2023-01-26T11:41:24;99542.13;;;1.46;100.00
50123;BME280;36021;48.670;6.184;2023-01-26T11:52:04;99531.34;;;1.58;100.00
50123;BME280;36021;48.670;6.184;2023-01-26T11:54:46;99524.56;;;1.67;100.00
50123;BME280;36021;48.670;6.184;2023-01-26T11:57:19;99518.53;;;1.65;100.00
50123;BME280;36021;48.670;6.184;2023-01-26T11:59:56;99525.47;;;1.61;100.00
50123;BME280;36021;48.670;6.184;2023-01-26T12:02:37;99516.41;;;1.49;100.00
50123;BME280;36021;48.670;6.184;2023-01-26T12:05:11;99519.97;;;1.25;100.00
50123;BME280;36021;48.670;6.184;2023-01-26T12:07:45;99512.78;;;1.12;100.00
50123;BME280;36021;48.670;6.184;2023-01-26T12:10:16;99515.53;;;1.05;100.00
50123;BME280;36021;48.670;6.184;2023-01-26T12:12:45;99508.22;;;1.06;100.00
50123;BME280;36021;48.670;6.184;2023-01-26T12:15:16;99504.25;;;1.09;100.00
50123;BME280;36021;48.670;6.184;2023-01-26T12:23:01;99499.44;;;1.11;100.00
50123;BME280;36021;48.670;6.184;2023-01-26T12:25:38;99502.53;;;1.14;100.00
50123;BME280;36021;48.670;6.184;2023-01-26T12:28:11;99495.09;;;1.03;100.00
50123;BME280;36021;48.670;6.184;2023-01-26T12:33:09;99495.06;;;1.10;100.00
50123;BME280;36021;48.670;6.184;2023-01-26T12:38:07;99479.53;;;1.17;100.00
50123;BME280;36021;48.670;6.184;2023-01-26T12:40:38;99466.56;;;1.19;100.00
50123;BME280;36021;48.670;6.184;2023-01-26T12:45:37;99469.13;;;1.14;100.00
50123;BME280;36021;48.670;6.184;2023-01-26T12:50:37;99468.38;;;1.07;100.00
50123;BME280;36021;48.670;6.184;2023-01-26T12:53:05;99467.31;;;1.08;100.00
50123;BME280;36021;48.670;6.184;2023-01-26T12:58:04;99478.38;;;1.06;100.00
50123;BME280;36021;48.670;6.184;2023-01-26T13:00:33;99481.38;;;0.98;100.00
50123;BME280;36021;48.670;6.184;2023-01-26T13:03:03;99471.66;;;1.09;100.00
50123;BME280;36021;48.670;6.184;2023-01-26T13:05:31;99474.88;;;1.24;100.00
50123;BME280;36021;48.670;6.184;2023-01-26T13:08:37;99469.66;;;1.22;100.00
50123;BME280;36021;48.670;6.184;2023-01-26T13:10:45;99466.63;;;1.12;100.00
50123;BME280;36021;48.670;6.184;2023-01-26T13:13:59;99472.13;;;1.05;100.00
50123;BME280;36021;48.670;6.184;2023-01-26T13:18:48;99463.59;;;1.27;100.00
50123;BME280;36021;48.670;6.184;2023-01-26T13:23:59;99468.81;;;1.46;100.00
50123;BME280;36021;48.670;6.184;2023-01-26T13:31:41;99473.38;;;1.28;100.00
50123;BME280;36021;48.670;6.184;2023-01-26T13:34:07;99477.03;;;1.40;100.00
50123;BME280;36021;48.670;6.184;2023-01-26T13:36:33;99475.66;;;1.31;100.00
50123;BME280;36021;48.670;6.184;2023-01-26T13:39:01;99468.13;;;1.33;100.00
50123;BME280;36021;48.670;6.184;2023-01-26T13:41:28;99469.19;;;1.50;100.00
50123;BME280;36021;48.670;6.184;2023-01-26T13:47:04;99471.28;;;1.48;100.00
50123;BME280;36021;48.670;6.184;2023-01-26T14:01:55;99483.88;;;0.99;100.00
50123;BME280;36021;48.670;6.184;2023-01-26T14:06:51;99482.50;;;0.90;100.00
50123;BME280;36021;48.670;6.184;2023-01-26T14:09:18;99487.78;;;0.79;100.00
50123;BME280;36021;48.670;6.184;2023-01-26T14:11:46;99492.84;;;0.75;100.00
50123;BME280;36021;48.670;6.184;2023-01-26T14:14:19;99495.97;;;0.72;100.00
50123;BME280;36021;48.670;6.184;2023-01-26T14:16:50;99492.31;;;0.60;100.00
50123;BME280;36021;48.670;6.184;2023-01-26T14:19:20;99507.09;;;0.64;100.00
50123;BME280;36021;48.670;6.184;2023-01-26T14:26:51;99509.53;;;0.41;100.00
50123;BME280;36021;48.670;6.184;2023-01-26T14:29:19;99513.53;;;0.38;100.00
50123;BME280;36021;48.670;6.184;2023-01-26T14:31:45;99515.56;;;0.43;100.00
50123;BME280;36021;48.670;6.184;2023-01-26T14:34:13;99515.44;;;0.63;100.00
50123;BME280;36021;48.670;6.184;2023-01-26T14:36:42;99509.13;;;0.75;100.00
50123;BME280;36021;48.670;6.184;2023-01-26T14:39:13;99510.31;;;0.79;100.00
50123;BME280;36021;48.670;6.184;2023-01-26T14:41:39;99509.97;;;0.69;100.00
50123;BME280;36021;48.670;6.184;2023-01-26T14:44:07;99516.28;;;0.63;100.00
50123;BME280;36021;48.670;6.184;2023-01-26T14:46:40;99519.25;;;0.55;100.00
50123;BME280;36021;48.670;6.184;2023-01-26T14:49:15;99512.09;;;0.67;100.00
50123;BME280;36021;48.670;6.184;2023-01-26T14:51:42;99513.41;;;0.58;100.00
50123;BME280;36021;48.670;6.184;2023-01-26T14:54:31;99524.69;;;0.55;100.00
50123;BME280;36021;48.670;6.184;2023-01-26T14:56:55;99527.44;;;0.48;100.00
50123;BME280;36021;48.670;6.184;2023-01-26T14:59:37;99525.75;;;0.47;100.00